Time;durP1;ratioP1;P1;durP2;ratioP2;P2;SDS_P1;SDS_P2;PMS_P1;PMS_P2;Temp;Humidity;BMP_temperature;BMP_pressure;BME280_temperature;BME280_humidity;BME280_pressure;Samples;Min_cycle;Max_cycle;Signal;HPM_P1;HPM_P2
2021/06/28 00:00:40;;;;;;;0.38;0.38;;;22.50;59.30;;;;;;4992652;28;20026;-20
2021/06/28 00:03:05;;;;;;;0.50;0.50;;;22.50;59.20;;;;;;4992472;28;20097;-19
2021/06/28 00:05:31;;;;;;;0.70;0.60;;;22.40;59.60;;;;;;4993053;28;20027;-20
2021/06/28 00:07:57;;;;;;;1.38;0.60;;;22.40;59.80;;;;;;4993536;28;20035;-20
2021/06/28 00:10:24;;;;;;;0.65;0.45;;;22.40;59.80;;;;;;4992500;28;20027;-20
2021/06/28 00:12:50;;;;;;;0.85;0.40;;;22.30;60.00;;;;;;4992504;28;20520;-20
2021/06/28 00:15:18;;;;;;;0.70;0.57;;;22.40;60.20;;;;;;4973466;28;20031;-19
2021/06/28 00:17:44;;;;;;;0.57;0.40;;;22.30;60.10;;;;;;4977180;28;20039;-20
2021/06/28 00:20:10;;;;;;;0.47;0.40;;;22.30;60.20;;;;;;5007642;28;20027;-20
2021/06/28 00:22:36;;;;;;;0.65;0.40;;;22.40;60.30;;;;;;4992414;28;20041;-19
2021/06/28 00:25:04;;;;;;;0.47;0.38;;;22.30;61.20;;;;;;4992426;28;20449;-19
2021/06/28 00:27:30;;;;;;;0.40;0.40;;;22.30;60.50;;;;;;4992539;28;20022;-21
2021/06/28 00:29:55;;;;;;;0.43;0.30;;;22.30;60.50;;;;;;4992397;28;20543;-19
2021/06/28 00:32:21;;;;;;;3.75;0.50;;;22.30;60.60;;;;;;4992770;28;20022;-20
2021/06/28 00:34:46;;;;;;;0.30;0.30;;;22.30;60.60;;;;;;4992513;28;20034;-19
2021/06/28 00:37:12;;;;;;;0.40;0.40;;;22.40;60.50;;;;;;4991394;28;20042;-20
2021/06/28 00:39:38;;;;;;;0.60;0.60;;;22.30;60.50;;;;;;4992182;28;20552;-20
2021/06/28 00:42:04;;;;;;;0.50;0.50;;;22.40;60.60;;;;;;4992315;28;20065;-20
2021/06/28 00:44:29;;;;;;;0.82;0.60;;;22.30;60.70;;;;;;4992332;28;20031;-20
2021/06/28 00:46:55;;;;;;;0.50;0.50;;;22.30;60.70;;;;;;4992377;28;20023;-20
2021/06/28 00:49:20;;;;;;;0.60;0.47;;;22.30;60.90;;;;;;4991717;28;20081;-20
2021/06/28 00:51:46;;;;;;;0.40;0.40;;;22.30;61.00;;;;;;4991820;28;20046;-19
2021/06/28 00:54:11;;;;;;;0.30;0.30;;;22.30;61.10;;;;;;4973529;28;20493;-19
2021/06/28 00:56:37;;;;;;;0.50;0.40;;;22.30;61.30;;;;;;4974724;28;20034;-19
2021/06/28 00:59:03;;;;;;;0.35;0.32;;;22.30;61.10;;;;;;4992444;28;20049;-19
2021/06/28 01:01:29;;;;;;;0.45;0.38;;;22.30;61.30;;;;;;4991702;28;20497;-21
2021/06/28 01:03:55;;;;;;;0.30;0.30;;;22.30;61.30;;;;;;4991801;28;20022;-19
2021/06/28 01:06:20;;;;;;;0.68;0.50;;;22.30;61.30;;;;;;4974197;28;20038;-21
2021/06/28 01:08:46;;;;;;;0.22;0.22;;;22.30;61.30;;;;;;4991881;28;20058;-25
2021/06/28 01:11:12;;;;;;;0.40;0.40;;;22.40;61.30;;;;;;4974958;28;20081;-19
2021/06/28 01:13:40;;;;;;;0.30;0.30;;;22.30;61.30;;;;;;5006580;28;20022;-19
2021/06/28 01:16:06;;;;;;;0.77;0.20;;;22.40;61.20;;;;;;4991206;28;20050;-19
2021/06/28 01:18:32;;;;;;;0.45;0.35;;;22.30;61.40;;;;;;4991813;28;20037;-19
2021/06/28 01:20:58;;;;;;;0.40;0.38;;;22.30;61.50;;;;;;4991607;28;20494;-20
2021/06/28 01:23:25;;;;;;;0.55;0.40;;;22.40;61.40;;;;;;4974814;28;20026;-22
2021/06/28 01:26:02;;;;;;;0.40;0.40;;;22.30;61.50;;;;;;4992419;28;20044;-20
2021/06/28 01:28:28;;;;;;;0.50;0.40;;;22.40;61.30;;;;;;4991527;28;20031;-19
2021/06/28 01:30:54;;;;;;;1.35;0.30;;;22.40;61.50;;;;;;4991558;28;20037;-20
2021/06/28 01:33:20;;;;;;;0.30;0.30;;;22.30;61.50;;;;;;4972412;28;20026;-20
2021/06/28 01:35:46;;;;;;;0.52;0.22;;;22.30;61.50;;;;;;4991513;28;20022;-20
2021/06/28 01:38:11;;;;;;;0.32;0.32;;;22.30;61.70;;;;;;4992516;28;20413;-19
2021/06/28 01:40:37;;;;;;;0.50;0.22;;;22.30;61.80;;;;;;4991697;28;20511;-21
2021/06/28 01:43:03;;;;;;;0.38;0.38;;;22.30;61.90;;;;;;4991307;28;20465;-20
2021/06/28 01:45:29;;;;;;;0.32;0.30;;;22.20;61.80;;;;;;4991427;28;20099;-22
2021/06/28 01:47:57;;;;;;;0.28;0.28;;;22.20;62.10;;;;;;4993674;28;20022;-20
2021/06/28 01:50:23;;;;;;;0.35;0.35;;;22.30;61.90;;;;;;4977678;28;20056;-21
2021/06/28 01:52:49;;;;;;;0.30;0.30;;;22.30;61.80;;;;;;4995914;28;20090;-21
2021/06/28 01:55:15;;;;;;;0.47;0.30;;;22.30;61.90;;;;;;4995001;28;20177;-20
2021/06/28 01:57:48;;;;;;;0.47;0.30;;;22.30;62.80;;;;;;4995305;28;20050;-20
2021/06/28 02:00:16;;;;;;;0.60;0.40;;;22.30;61.90;;;;;;4995160;28;20500;-19
2021/06/28 02:02:58;;;;;;;0.30;0.30;;;22.30;62.10;;;;;;4984264;28;20023;-20
2021/06/28 02:05:26;;;;;;;0.35;0.30;;;22.30;62.00;;;;;;4993017;28;20030;-21
2021/06/28 02:07:52;;;;;;;0.45;0.35;;;22.30;61.80;;;;;;4995347;28;20058;-21
2021/06/28 02:10:17;;;;;;;0.30;0.30;;;22.30;61.90;;;;;;4994946;28;20511;-20
2021/06/28 02:12:43;;;;;;;0.25;0.22;;;22.30;61.90;;;;;;4994400;28;20027;-19
2021/06/28 02:15:19;;;;;;;0.40;0.30;;;22.30;61.80;;;;;;4994877;28;20101;-19
2021/06/28 02:17:44;;;;;;;0.28;0.28;;;22.30;62.10;;;;;;4978850;28;20120;-19
2021/06/28 02:20:10;;;;;;;0.40;0.30;;;22.30;62.10;;;;;;4995200;28;20062;-21
2021/06/28 02:22:39;;;;;;;0.32;0.20;;;22.30;62.20;;;;;;4994478;28;20517;-20
2021/06/28 02:25:09;;;;;;;0.30;0.30;;;22.20;62.20;;;;;;4994485;28;20026;-19
2021/06/28 02:27:35;;;;;;;0.57;0.28;;;22.30;62.10;;;;;;4995160;28;20038;-19
2021/06/28 02:30:01;;;;;;;0.30;0.30;;;22.30;62.00;;;;;;4994638;28;20031;-20
2021/06/28 02:32:26;;;;;;;0.40;0.40;;;22.30;62.10;;;;;;4994906;28;20030;-19
2021/06/28 02:34:52;;;;;;;0.30;0.28;;;22.30;62.10;;;;;;4995009;28;20023;-21
2021/06/28 02:37:17;;;;;;;0.30;0.30;;;22.20;62.30;;;;;;4993986;28;20129;-20
2021/06/28 02:39:43;;;;;;;0.30;0.30;;;22.20;62.40;;;;;;4994192;28;20026;-20
2021/06/28 02:42:09;;;;;;;0.30;0.20;;;22.20;62.40;;;;;;4994805;28;20034;-20
2021/06/28 02:44:34;;;;;;;0.20;0.20;;;22.20;62.50;;;;;;4976889;28;20030;-19
2021/06/28 02:47:00;;;;;;;0.22;0.22;;;22.20;62.50;;;;;;4994701;28;20061;-19
2021/06/28 02:49:25;;;;;;;0.32;0.30;;;22.20;62.60;;;;;;4994180;28;20497;-19
2021/06/28 02:51:51;;;;;;;0.35;0.35;;;22.20;62.40;;;;;;4993934;28;20076;-20
2021/06/28 02:54:17;;;;;;;0.20;0.20;;;22.20;62.50;;;;;;4993917;28;20397;-19
2021/06/28 02:56:42;;;;;;;0.20;0.20;;;22.20;62.60;;;;;;4993834;28;20038;-19
2021/06/28 02:59:11;;;;;;;0.30;0.30;;;22.20;62.30;;;;;;4994088;28;20023;-20
2021/06/28 03:01:37;;;;;;;0.40;0.30;;;22.20;62.30;;;;;;4994135;28;20062;-20
2021/06/28 03:04:02;;;;;;;1.08;0.30;;;22.30;62.30;;;;;;4994064;28;20027;-24
2021/06/28 03:06:28;;;;;;;0.30;0.20;;;22.20;62.50;;;;;;4993898;28;20405;-25
2021/06/28 03:08:53;;;;;;;0.30;0.30;;;22.20;63.40;;;;;;4994754;28;20117;-26
2021/06/28 03:11:20;;;;;;;0.20;0.20;;;22.20;62.80;;;;;;4994177;28;20034;-19
2021/06/28 03:13:46;;;;;;;0.25;0.20;;;22.20;62.60;;;;;;4992996;28;20065;-20
2021/06/28 03:16:11;;;;;;;0.20;0.20;;;22.20;62.60;;;;;;4993442;28;20088;-23
2021/06/28 03:18:37;;;;;;;0.30;0.30;;;22.20;62.70;;;;;;4993747;28;20038;-20
2021/06/28 03:21:03;;;;;;;0.30;0.30;;;22.10;62.70;;;;;;4993591;28;20030;-19
2021/06/28 03:23:29;;;;;;;0.20;0.20;;;22.10;62.80;;;;;;4993299;28;20033;-19
2021/06/28 03:25:55;;;;;;;0.20;0.20;;;22.10;62.70;;;;;;4993850;28;20018;-19
2021/06/28 03:28:21;;;;;;;0.15;0.15;;;22.10;62.80;;;;;;4993497;28;20033;-25
2021/06/28 03:30:46;;;;;;;0.57;0.20;;;22.10;62.70;;;;;;4993109;28;20110;-20
2021/06/28 03:33:12;;;;;;;0.55;0.20;;;22.10;62.80;;;;;;4993734;28;20053;-20
2021/06/28 03:35:37;;;;;;;0.20;0.20;;;22.10;62.80;;;;;;4993978;28;20076;-19
2021/06/28 03:38:03;;;;;;;0.20;0.20;;;22.10;63.00;;;;;;5008556;28;20037;-19
2021/06/28 03:40:32;;;;;;;0.40;0.38;;;22.10;63.00;;;;;;4993170;28;20045;-20
2021/06/28 03:43:00;;;;;;;0.10;0.10;;;22.10;63.10;;;;;;4993031;28;20106;-20
2021/06/28 03:45:25;;;;;;;0.20;0.10;;;22.10;62.80;;;;;;4993442;28;20113;-22
2021/06/28 03:47:51;;;;;;;0.20;0.20;;;22.10;62.90;;;;;;4993455;28;20101;-28
2021/06/28 03:50:16;;;;;;;0.30;0.25;;;22.10;62.90;;;;;;4992931;28;20046;-20
2021/06/28 03:52:42;;;;;;;1.33;0.20;;;22.20;62.60;;;;;;5008356;28;20106;-20
2021/06/28 03:55:08;;;;;;;0.38;0.17;;;22.20;62.80;;;;;;4992516;28;20042;-19
2021/06/28 03:57:34;;;;;;;0.20;0.20;;;22.10;62.90;;;;;;4992234;28;20544;-19
2021/06/28 04:00:00;;;;;;;0.40;0.28;;;22.10;63.60;;;;;;4992409;28;20109;-19
2021/06/28 04:02:27;;;;;;;0.40;0.20;;;22.10;62.80;;;;;;4992597;28;20027;-19
2021/06/28 04:04:53;;;;;;;0.17;0.17;;;22.10;62.90;;;;;;4992378;28;20068;-19
2021/06/28 04:07:18;;;;;;;0.30;0.20;;;22.10;63.10;;;;;;4992222;28;20458;-19
2021/06/28 04:09:44;;;;;;;0.20;0.20;;;22.10;63.00;;;;;;4992549;28;20386;-20
2021/06/28 04:12:10;;;;;;;0.30;0.20;;;22.10;63.00;;;;;;4992184;28;20034;-20
2021/06/28 04:14:37;;;;;;;0.10;0.10;;;22.00;63.10;;;;;;4992802;28;20022;-21
2021/06/28 04:17:03;;;;;;;1.45;0.20;;;22.10;63.00;;;;;;4992300;28;20042;-24
2021/06/28 04:19:29;;;;;;;0.28;0.28;;;22.00;63.00;;;;;;4992096;28;20388;-20
2021/06/28 04:21:54;;;;;;;0.20;0.20;;;22.10;63.20;;;;;;4992067;28;20041;-19
2021/06/28 04:24:20;;;;;;;0.20;0.20;;;22.10;63.30;;;;;;4992442;28;20065;-20
2021/06/28 04:26:45;;;;;;;0.10;0.10;;;22.10;62.90;;;;;;4992016;28;20551;-20
2021/06/28 04:29:11;;;;;;;0.10;0.10;;;22.10;63.00;;;;;;4993301;28;20049;-19
2021/06/28 04:31:37;;;;;;;0.10;0.10;;;22.00;63.00;;;;;;4992161;28;20031;-20
2021/06/28 04:34:03;;;;;;;0.10;0.10;;;22.10;63.10;;;;;;4992064;28;20080;-20
2021/06/28 04:36:29;;;;;;;0.20;0.20;;;22.00;63.10;;;;;;4992053;28;20042;-19
2021/06/28 04:38:54;;;;;;;0.20;0.20;;;22.00;63.10;;;;;;4973637;28;20033;-19
2021/06/28 04:41:20;;;;;;;0.22;0.20;;;22.00;63.30;;;;;;4992150;28;20026;-21
2021/06/28 04:43:45;;;;;;;0.30;0.30;;;22.10;63.20;;;;;;4991537;28;20072;-19
2021/06/28 04:46:11;;;;;;;0.77;0.40;;;22.10;63.20;;;;;;4991165;28;20088;-20
2021/06/28 04:48:37;;;;;;;0.45;0.30;;;22.00;63.20;;;;;;4991941;28;20085;-20
2021/06/28 04:51:02;;;;;;;0.20;0.20;;;22.00;63.30;;;;;;4991537;28;20062;-28
2021/06/28 04:53:28;;;;;;;0.20;0.15;;;22.10;63.20;;;;;;4974644;28;20077;-19
2021/06/28 04:55:53;;;;;;;0.20;0.20;;;22.00;63.30;;;;;;4991777;28;20019;-20
2021/06/28 04:58:19;;;;;;;0.10;0.10;;;22.00;63.20;;;;;;4991690;28;20042;-19
2021/06/28 05:00:44;;;;;;;0.20;0.17;;;22.00;63.30;;;;;;4990710;28;20030;-22
2021/06/28 05:03:10;;;;;;;0.22;0.22;;;22.00;63.30;;;;;;4991066;28;20041;-21
2021/06/28 05:05:36;;;;;;;0.50;0.30;;;22.00;63.30;;;;;;4990568;28;20493;-21
2021/06/28 05:08:01;;;;;;;0.50;0.20;;;22.10;63.30;;;;;;4991120;28;20034;-22
2021/06/28 05:10:27;;;;;;;0.17;0.10;;;22.10;63.20;;;;;;4990341;28;20085;-22
2021/06/28 05:12:52;;;;;;;0.80;0.20;;;22.00;63.30;;;;;;4991006;28;20045;-21
2021/06/28 05:15:18;;;;;;;0.32;0.20;;;22.00;63.60;;;;;;4991562;28;20037;-20
2021/06/28 05:17:44;;;;;;;0.30;0.20;;;22.00;63.40;;;;;;4990327;28;20524;-20
2021/06/28 05:20:10;;;;;;;0.20;0.20;;;22.10;63.50;;;;;;4991447;28;20027;-22
2021/06/28 05:22:36;;;;;;;1.52;0.30;;;22.20;62.70;;;;;;4994714;28;20030;-20
2021/06/28 05:25:02;;;;;;;0.20;0.20;;;22.10;63.60;;;;;;4998007;28;20856;-21
2021/06/28 05:27:28;;;;;;;0.30;0.20;;;22.10;63.00;;;;;;4980970;28;20018;-20
2021/06/28 05:29:57;;;;;;;0.20;0.20;;;22.10;63.20;;;;;;4998124;28;20389;-21
2021/06/28 05:32:26;;;;;;;0.20;0.20;;;22.10;63.20;;;;;;4997815;28;20034;-21
2021/06/28 05:34:52;;;;;;;0.20;0.20;;;22.00;64.10;;;;;;4997982;28;20827;-22
2021/06/28 05:37:18;;;;;;;0.20;0.20;;;22.00;63.40;;;;;;4997497;28;20136;-21
2021/06/28 05:39:45;;;;;;;0.30;0.30;;;22.00;63.40;;;;;;4648881;28;10000196;-22
2021/06/28 05:42:12;;;;;;;1.95;0.40;;;22.00;63.40;;;;;;4994035;28;20037;-21
2021/06/28 05:44:38;;;;;;;0.30;0.30;;;22.00;63.40;;;;;;4994142;28;20042;-20
2021/06/28 05:47:04;;;;;;;0.70;0.40;;;22.00;63.40;;;;;;4995357;28;20104;-21
2021/06/28 05:49:36;;;;;;;0.28;0.20;;;22.00;63.40;;;;;;4994318;28;20031;-21
2021/06/28 05:52:03;;;;;;;0.60;0.30;;;22.00;63.50;;;;;;4993710;28;20077;-20
2021/06/28 05:54:30;;;;;;;0.20;0.20;;;22.00;63.40;;;;;;4994621;28;20031;-22
2021/06/28 05:56:56;;;;;;;0.43;0.25;;;22.00;63.40;;;;;;4994638;28;20034;-20
2021/06/28 05:59:21;;;;;;;0.22;0.20;;;22.00;63.30;;;;;;4977072;28;20408;-21
2021/06/28 06:01:48;;;;;;;0.43;0.30;;;22.00;63.30;;;;;;4994531;28;20050;-24
2021/06/28 06:04:14;;;;;;;0.75;0.20;;;22.00;63.20;;;;;;4993019;28;20100;-20
2021/06/28 06:06:41;;;;;;;1.17;0.40;;;21.90;63.20;;;;;;4993663;28;20054;-19
2021/06/28 06:09:07;;;;;;;0.50;0.20;;;22.00;63.30;;;;;;4993839;28;20038;-26
2021/06/28 06:11:33;;;;;;;0.30;0.30;;;22.00;63.20;;;;;;4994350;28;20533;-21
2021/06/28 06:13:59;;;;;;;0.55;0.32;;;22.00;63.20;;;;;;5002182;28;20443;-20
2021/06/28 06:16:25;;;;;;;0.25;0.22;;;21.90;63.10;;;;;;4995554;28;20050;-20
2021/06/28 06:18:52;;;;;;;0.32;0.30;;;22.00;63.20;;;;;;4993840;28;20069;-22
2021/06/28 06:21:21;;;;;;;0.50;0.22;;;22.00;63.20;;;;;;4994221;28;20031;-31
2021/06/28 06:23:46;;;;;;;0.55;0.38;;;22.00;63.20;;;;;;4994596;28;20085;-19
2021/06/28 06:26:12;;;;;;;0.60;0.35;;;21.90;63.20;;;;;;4994408;28;20037;-23
2021/06/28 06:28:38;;;;;;;0.60;0.32;;;22.00;63.20;;;;;;4993626;28;20034;-20
2021/06/28 06:31:03;;;;;;;0.50;0.40;;;22.00;63.10;;;;;;4993956;28;20109;-21
2021/06/28 06:33:29;;;;;;;0.75;0.30;;;22.00;63.20;;;;;;4991643;28;20120;-20
2021/06/28 06:35:55;;;;;;;0.30;0.20;;;22.00;63.10;;;;;;4991147;28;20034;-22
2021/06/28 06:38:20;;;;;;;0.50;0.30;;;22.00;63.10;;;;;;4990356;28;20046;-21
2021/06/28 06:40:48;;;;;;;1.10;0.50;;;22.00;63.10;;;;;;4991054;28;20416;-21
2021/06/28 06:43:14;;;;;;;0.68;0.40;;;22.00;63.10;;;;;;4990387;28;20046;-20
2021/06/28 06:45:39;;;;;;;0.52;0.35;;;22.00;63.10;;;;;;4990748;28;20732;-21
2021/06/28 06:48:05;;;;;;;0.43;0.30;;;22.00;63.10;;;;;;4990932;28;20521;-21
2021/06/28 06:50:31;;;;;;;0.50;0.40;;;22.10;62.90;;;;;;4990318;28;20049;-21
2021/06/28 06:52:57;;;;;;;1.45;0.38;;;22.20;62.70;;;;;;4990652;28;20034;-19
2021/06/28 06:55:22;;;;;;;0.35;0.30;;;22.20;62.70;;;;;;4990106;28;20129;-20
2021/06/28 06:57:48;;;;;;;0.75;0.50;;;22.20;62.70;;;;;;4989222;28;20516;-20
2021/06/28 07:00:16;;;;;;;0.52;0.43;;;22.20;62.90;;;;;;4988763;28;20560;-21
2021/06/28 07:02:41;;;;;;;0.40;0.40;;;22.10;62.90;;;;;;4988374;28;20042;-27
2021/06/28 07:05:08;;;;;;;0.98;0.30;;;22.10;63.10;;;;;;4989535;28;20565;-21
2021/06/28 07:07:36;;;;;;;0.70;0.30;;;22.10;63.20;;;;;;4989621;28;20120;-21
2021/06/28 07:10:03;;;;;;;0.93;0.55;;;22.10;63.20;;;;;;4970593;28;20081;-21
2021/06/28 07:12:29;;;;;;;0.57;0.50;;;22.10;63.20;;;;;;4990250;28;20121;-20
2021/06/28 07:14:55;;;;;;;0.30;0.30;;;22.10;63.20;;;;;;4988713;28;20049;-20
2021/06/28 07:17:20;;;;;;;0.40;0.30;;;22.10;63.20;;;;;;4989403;28;20096;-22
2021/06/28 07:19:46;;;;;;;0.50;0.50;;;22.10;63.20;;;;;;4989617;28;20103;-24
2021/06/28 07:22:12;;;;;;;0.32;0.30;;;22.10;63.20;;;;;;4989153;28;20045;-21
2021/06/28 07:24:37;;;;;;;0.52;0.40;;;22.10;63.30;;;;;;4989127;28;20528;-23
2021/06/28 07:27:03;;;;;;;0.52;0.38;;;22.10;63.20;;;;;;4988986;28;20035;-20
2021/06/28 07:29:29;;;;;;;1.02;0.50;;;22.10;63.30;;;;;;4965482;28;20493;-22
2021/06/28 07:31:54;;;;;;;0.68;0.50;;;22.20;63.40;;;;;;4989152;28;20124;-20
2021/06/28 07:34:20;;;;;;;0.70;0.50;;;22.10;63.30;;;;;;4989958;28;20061;-19
2021/06/28 07:36:46;;;;;;;0.90;0.50;;;22.20;63.40;;;;;;4968542;28;20050;-21
2021/06/28 07:39:12;;;;;;;0.50;0.50;;;22.20;63.40;;;;;;4988460;28;20022;-20
2021/06/28 07:41:37;;;;;;;0.95;0.43;;;22.20;64.10;;;;;;4988258;28;20037;-22
2021/06/28 07:44:07;;;;;;;3.53;0.43;;;22.20;63.20;;;;;;4989395;28;20062;-21
2021/06/28 07:46:33;;;;;;;1.02;0.55;;;22.30;63.20;;;;;;4988198;28;20555;-20
2021/06/28 07:48:59;;;;;;;1.73;0.43;;;22.30;63.00;;;;;;4987984;28;20034;-21
2021/06/28 07:51:25;;;;;;;0.30;0.30;;;22.30;63.00;;;;;;4988705;28;20387;-19
2021/06/28 07:53:50;;;;;;;1.60;0.50;;;22.30;62.90;;;;;;4989370;28;20089;-20
2021/06/28 07:56:19;;;;;;;0.70;0.60;;;22.30;63.20;;;;;;4988982;28;20030;-21
2021/06/28 07:58:46;;;;;;;0.63;0.50;;;22.30;63.30;;;;;;4989475;28;20416;-23
2021/06/28 08:01:12;;;;;;;1.17;0.45;;;22.30;63.30;;;;;;4988175;28;20472;-21
2021/06/28 08:03:43;;;;;;;0.90;0.60;;;22.40;63.20;;;;;;4987532;28;20042;-22
2021/06/28 08:06:10;;;;;;;0.70;0.43;;;22.30;63.50;;;;;;4987440;28;20092;-22
2021/06/28 08:08:35;;;;;;;0.50;0.50;;;22.30;63.40;;;;;;4979626;28;20904;-21
2021/06/28 08:11:01;;;;;;;0.50;0.50;;;22.40;63.40;;;;;;4975623;28;20038;-21
2021/06/28 08:13:27;;;;;;;1.40;0.60;;;22.40;63.40;;;;;;4959958;28;20460;-21
2021/06/28 08:15:53;;;;;;;0.43;0.43;;;22.40;63.40;;;;;;4978048;28;20062;-24
2021/06/28 08:18:18;;;;;;;0.55;0.47;;;22.40;63.30;;;;;;4977395;28;20219;-18
2021/06/28 08:20:44;;;;;;;0.40;0.40;;;22.40;63.20;;;;;;4977501;28;20030;-21
2021/06/28 08:23:10;;;;;;;0.38;0.38;;;22.50;63.20;;;;;;4976963;28;20042;-19
2021/06/28 08:25:36;;;;;;;1.38;0.82;;;22.40;63.30;;;;;;4976694;28;20037;-20
2021/06/28 08:28:02;;;;;;;0.57;0.40;;;22.40;63.40;;;;;;4976522;28;20736;-21
2021/06/28 08:30:28;;;;;;;0.47;0.32;;;22.60;63.30;;;;;;4975531;28;20532;-20
2021/06/28 08:32:54;;;;;;;0.50;0.40;;;22.60;63.00;;;;;;4978038;28;20042;-20
2021/06/28 08:35:19;;;;;;;0.50;0.50;;;22.50;64.10;;;;;;4976303;28;20026;-22
2021/06/28 08:37:45;;;;;;;0.63;0.50;;;22.50;65.80;;;;;;4975569;28;20057;-21
2021/06/28 08:40:11;;;;;;;0.60;0.40;;;22.40;66.30;;;;;;4975499;28;20030;-22
2021/06/28 08:42:37;;;;;;;0.47;0.47;;;22.40;66.20;;;;;;4975229;28;20034;-21
2021/06/28 08:45:03;;;;;;;0.98;0.30;;;22.40;66.40;;;;;;4975670;28;20160;-22
2021/06/28 08:47:29;;;;;;;0.82;0.65;;;22.40;66.10;;;;;;4976191;28;20034;-21
2021/06/28 08:49:55;;;;;;;0.50;0.50;;;22.60;65.40;;;;;;4976614;28;20031;-20
2021/06/28 08:52:20;;;;;;;0.75;0.60;;;22.60;64.90;;;;;;4957468;28;20054;-21
2021/06/28 08:54:47;;;;;;;0.50;0.50;;;22.60;65.20;;;;;;4959856;28;20146;-22
2021/06/28 08:57:12;;;;;;;0.60;0.43;;;22.60;65.10;;;;;;4976034;28;20046;-25
2021/06/28 08:59:41;;;;;;;0.77;0.50;;;22.50;65.00;;;;;;4976365;28;20045;-21
2021/06/28 09:02:07;;;;;;;0.82;0.55;;;22.50;65.10;;;;;;4975570;28;20527;-22
2021/06/28 09:04:32;;;;;;;0.60;0.50;;;22.60;65.10;;;;;;4976519;28;20039;-23
2021/06/28 09:07:18;;;;;;;1.00;0.55;;;22.60;65.20;;;;;;4974856;28;20705;-21
2021/06/28 09:09:43;;;;;;;0.70;0.40;;;22.60;65.10;;;;;;4975823;28;20112;-21
2021/06/28 09:12:13;;;;;;;0.60;0.50;;;22.60;65.10;;;;;;4975307;28;20031;-21
2021/06/28 09:14:46;;;;;;;0.40;0.40;;;22.60;65.10;;;;;;4977632;28;20755;-22
2021/06/28 09:17:32;;;;;;;1.15;0.68;;;22.60;65.10;;;;;;4976731;28;20043;-21
2021/06/28 09:20:18;;;;;;;1.50;0.90;;;22.70;65.30;;;;;;4977162;28;20058;-30
2021/06/28 09:22:45;;;;;;;3.30;0.90;;;22.60;65.40;;;;;;4978150;28;20030;-21
2021/06/28 09:25:36;;;;;;;1.20;0.80;;;22.70;65.60;;;;;;4978011;28;20030;-21
2021/06/28 09:28:03;;;;;;;2.50;0.90;;;22.70;65.50;;;;;;4978842;28;20042;-21
2021/06/28 09:30:28;;;;;;;2.67;0.90;;;22.70;65.20;;;;;;4978709;28;20096;-21
2021/06/28 09:32:58;;;;;;;2.63;1.02;;;22.60;65.50;;;;;;4978259;28;20456;-22
2021/06/28 09:35:31;;;;;;;4.50;1.40;;;22.50;65.50;;;;;;4979874;28;20378;-21
2021/06/28 09:38:00;;;;;;;4.88;0.95;;;22.60;65.80;;;;;;4979621;28;20054;-20
2021/06/28 09:40:26;;;;;;;1.60;1.10;;;22.60;65.50;;;;;;4990468;28;20026;-27
2021/06/28 09:42:51;;;;;;;1.58;0.80;;;22.60;65.10;;;;;;4990864;28;20034;-22
2021/06/28 09:45:18;;;;;;;4.93;1.13;;;22.50;65.30;;;;;;4991004;28;20038;-29
2021/06/28 09:47:43;;;;;;;2.88;0.90;;;22.50;65.30;;;;;;4975544;28;20040;-22
2021/06/28 09:50:09;;;;;;;3.20;0.90;;;22.50;65.40;;;;;;4990615;28;20038;-18
2021/06/28 09:52:43;;;;;;;1.77;1.13;;;22.50;65.40;;;;;;4990901;28;20041;-18
2021/06/28 09:55:19;;;;;;;1.52;0.82;;;22.50;65.40;;;;;;4990950;28;20034;-19
2021/06/28 09:58:24;;;;;;;0.95;0.95;;;22.50;65.40;;;;;;4973281;28;20509;-19
2021/06/28 10:00:54;;;;;;;2.65;0.82;;;22.50;65.40;;;;;;4990506;28;20026;-19
2021/06/28 10:03:46;;;;;;;1.05;0.80;;;22.50;65.40;;;;;;4990896;28;20493;-20
2021/06/28 10:08:40;;;;;;;9.30;0.98;;;22.50;65.40;;;;;;4992339;28;20096;-19
2021/06/28 10:11:21;;;;;;;0.85;0.80;;;22.50;65.50;;;;;;5008831;28;20043;-19
2021/06/28 10:13:51;;;;;;;1.88;0.95;;;22.50;65.50;;;;;;4993603;28;20030;-19
2021/06/28 10:16:19;;;;;;;2.03;0.60;;;22.40;65.70;;;;;;4994494;28;20421;-19
2021/06/28 10:18:46;;;;;;;2.13;0.70;;;22.40;65.70;;;;;;4974481;28;20061;-20
2021/06/28 10:21:11;;;;;;;1.33;1.10;;;22.50;65.80;;;;;;4974654;28;20061;-20
2021/06/28 10:23:37;;;;;;;3.20;1.10;;;22.40;65.80;;;;;;4994323;28;20054;-20
2021/06/28 10:26:03;;;;;;;1.60;0.75;;;22.40;65.80;;;;;;4994510;28;20040;-19
2021/06/28 10:28:29;;;;;;;1.10;0.73;;;22.50;65.80;;;;;;4993570;28;20106;-20
2021/06/28 10:30:55;;;;;;;1.13;0.73;;;22.40;65.90;;;;;;4974827;28;20026;-19
2021/06/28 10:33:22;;;;;;;2.35;0.80;;;22.40;65.90;;;;;;4994252;28;20081;-19
2021/06/28 10:35:48;;;;;;;0.60;0.50;;;22.40;65.90;;;;;;4993545;28;20034;-19
2021/06/28 10:38:14;;;;;;;1.20;0.75;;;22.40;65.90;;;;;;4976515;28;20475;-20
2021/06/28 10:40:49;;;;;;;0.98;0.88;;;22.40;65.90;;;;;;4992705;28;20026;-20
2021/06/28 10:43:41;;;;;;;0.93;0.75;;;22.50;66.20;;;;;;4989687;28;20686;-21
2021/06/28 10:46:08;;;;;;;1.45;0.60;;;22.70;65.50;;;;;;4984601;28;20096;-19
2021/06/28 10:48:47;;;;;;;0.77;0.73;;;22.70;65.20;;;;;;5011840;28;20481;-19
2021/06/28 10:51:14;;;;;;;1.98;0.90;;;22.60;65.50;;;;;;4990005;28;20133;-19
2021/06/28 10:53:40;;;;;;;2.30;0.70;;;22.70;65.70;;;;;;4990416;28;20049;-20
2021/06/28 10:59:00;;;;;;;1.92;0.98;;;22.60;66.70;;;;;;4990758;28;20057;-21
2021/06/28 11:01:39;;;;;;;2.05;0.73;;;22.80;65.90;;;;;;4989799;28;20092;-26
2021/06/28 11:04:16;;;;;;;1.38;0.88;;;22.70;66.00;;;;;;4640000;28;10000007;-26
2021/06/28 11:07:00;;;;;;;4.53;1.00;;;22.60;66.50;;;;;;4985118;28;20057;-25
2021/06/28 11:09:49;;;;;;;2.95;1.00;;;22.70;66.30;;;;;;4985743;28;20042;-20
2021/06/28 11:12:18;;;;;;;2.13;1.00;;;22.80;66.50;;;;;;4986103;28;20029;-20
2021/06/28 11:14:47;;;;;;;1.48;0.68;;;22.70;67.00;;;;;;4982762;28;20030;-20
2021/06/28 11:17:25;;;;;;;1.17;0.90;;;22.60;67.40;;;;;;4986591;28;20124;-21
2021/06/28 11:19:53;;;;;;;1.75;0.77;;;22.60;68.30;;;;;;4985988;28;20053;-20
2021/06/28 11:22:30;;;;;;;1.10;0.70;;;22.60;67.60;;;;;;4986465;28;20505;-21
2021/06/28 11:25:08;;;;;;;2.45;0.98;;;22.60;67.90;;;;;;4985979;28;20026;-20
2021/06/28 11:27:35;;;;;;;3.15;0.80;;;22.60;68.20;;;;;;4986969;28;20034;-21
2021/06/28 11:30:01;;;;;;;4.07;1.10;;;22.70;68.50;;;;;;4988615;28;20479;-20
2021/06/28 11:32:28;;;;;;;1.33;0.63;;;22.60;67.90;;;;;;4975370;28;20038;-20
2021/06/28 11:34:57;;;;;;;1.30;0.77;;;22.70;68.40;;;;;;4987167;28;20038;-21
2021/06/28 11:37:23;;;;;;;1.60;1.00;;;22.80;68.20;;;;;;4972725;28;20509;-20
2021/06/28 11:39:58;;;;;;;1.33;0.88;;;22.90;68.10;;;;;;4986510;28;20041;-28
2021/06/28 11:42:32;;;;;;;1.15;0.75;;;22.90;68.10;;;;;;4984516;28;20077;-20
2021/06/28 11:45:08;;;;;;;3.58;1.08;;;22.90;68.20;;;;;;4981370;28;20045;-21
2021/06/28 11:47:50;;;;;;;1.25;0.93;;;22.90;68.00;;;;;;4974748;28;20034;-20
2021/06/28 11:50:24;;;;;;;1.33;0.80;;;22.90;67.90;;;;;;4986243;28;20065;-20
2021/06/28 11:52:59;;;;;;;0.70;0.70;;;23.00;67.80;;;;;;4985890;28;20023;-20
2021/06/28 11:55:27;;;;;;;1.23;0.52;;;22.90;67.70;;;;;;4984415;28;20186;-22
2021/06/28 11:57:54;;;;;;;3.35;0.90;;;22.90;67.80;;;;;;4985261;28;20045;-21
2021/06/28 12:00:20;;;;;;;1.20;0.70;;;22.90;67.90;;;;;;4986448;28;20093;-21
2021/06/28 12:02:45;;;;;;;0.68;0.68;;;22.90;68.00;;;;;;4986070;28;20092;-25
2021/06/28 12:05:11;;;;;;;0.70;0.60;;;22.80;68.00;;;;;;4986040;28;20034;-20
2021/06/28 12:07:37;;;;;;;1.23;0.68;;;22.70;67.70;;;;;;4985214;28;20349;-23
2021/06/28 12:10:03;;;;;;;1.25;0.80;;;22.80;67.80;;;;;;4973418;28;20125;-23
2021/06/28 12:12:29;;;;;;;1.80;0.80;;;22.90;67.20;;;;;;4983910;28;20069;-22
2021/06/28 12:14:55;;;;;;;1.02;0.70;;;22.80;67.70;;;;;;4985212;28;20034;-21
2021/06/28 12:17:24;;;;;;;3.03;0.93;;;22.80;68.10;;;;;;4985254;28;20513;-22
2021/06/28 12:19:57;;;;;;;2.47;0.98;;;22.70;68.60;;;;;;4985196;28;20026;-21
2021/06/28 12:22:23;;;;;;;1.40;0.60;;;22.80;68.40;;;;;;5005585;28;20034;-21
2021/06/28 12:24:57;;;;;;;2.60;0.82;;;22.80;68.60;;;;;;4985311;28;20030;-22
2021/06/28 12:27:28;;;;;;;1.20;0.65;;;22.80;68.80;;;;;;4983081;28;20037;-22
2021/06/28 12:29:54;;;;;;;1.25;0.80;;;22.80;68.70;;;;;;4982152;28;20030;-21
2021/06/28 12:32:30;;;;;;;2.22;1.23;;;22.80;68.40;;;;;;4982993;28;20809;-21
2021/06/28 12:34:56;;;;;;;0.90;0.80;;;22.80;68.60;;;;;;4984659;28;20037;-21
2021/06/28 12:37:28;;;;;;;0.98;0.68;;;22.90;68.00;;;;;;4985741;28;20050;-19
2021/06/28 12:40:12;;;;;;;2.50;0.88;;;23.00;67.60;;;;;;4984046;28;20034;-22
2021/06/28 12:42:40;;;;;;;3.40;0.80;;;23.00;68.00;;;;;;4983875;28;20034;-21
2021/06/28 12:45:06;;;;;;;1.50;0.80;;;23.00;67.90;;;;;;4973431;28;20038;-20
2021/06/28 12:47:31;;;;;;;2.53;0.98;;;22.90;68.20;;;;;;4984932;28;20033;-20
2021/06/28 12:49:58;;;;;;;1.48;0.60;;;23.00;68.40;;;;;;4984541;28;20122;-20
2021/06/28 12:52:35;;;;;;;2.88;0.75;;;23.00;67.80;;;;;;4969156;28;20165;-20